createdAt,value
2023-02-15T00:02:03.952Z,93.00
2023-02-15T00:04:46.957Z,92.80
2023-02-15T00:07:18.785Z,92.70
2023-02-15T00:09:47.540Z,92.90
2023-02-15T00:12:15.596Z,92.80
2023-02-15T00:14:43.159Z,92.50
2023-02-15T00:17:10.465Z,92.30
2023-02-15T00:19:37.797Z,92.40
2023-02-15T00:22:04.976Z,92.50
2023-02-15T00:24:32.189Z,92.70
2023-02-15T00:26:59.528Z,92.70
2023-02-15T00:29:27.195Z,92.60
2023-02-15T00:31:54.432Z,92.80
2023-02-15T00:34:27.558Z,93.10
2023-02-15T00:36:54.782Z,92.90
2023-02-15T00:39:22.299Z,92.90
2023-02-15T00:41:49.477Z,93.00
2023-02-15T00:44:17.038Z,92.90
2023-02-15T00:46:44.278Z,92.80
2023-02-15T00:49:11.795Z,92.80
2023-02-15T00:51:40.357Z,93.00
2023-02-15T00:54:08.156Z,93.00
2023-02-15T00:56:35.460Z,93.00
2023-02-15T00:59:03.116Z,93.10
2023-02-15T01:01:30.354Z,93.40
2023-02-15T01:03:57.800Z,93.70
2023-02-15T01:06:25.079Z,93.50
2023-02-15T01:08:52.337Z,93.60
2023-02-15T01:11:25.171Z,93.60
2023-02-15T01:13:55.688Z,93.60
2023-02-15T01:16:25.125Z,93.70
2023-02-15T01:18:52.506Z,93.50
2023-02-15T01:21:22.957Z,93.50
2023-02-15T01:23:50.332Z,93.70
2023-02-15T01:26:17.965Z,93.90
2023-02-15T01:28:46.092Z,94.10
2023-02-15T01:31:16.471Z,93.60
2023-02-15T01:33:46.430Z,94.00
2023-02-15T01:36:13.876Z,94.00
2023-02-15T01:38:41.366Z,93.70
2023-02-15T01:41:21.203Z,93.60
2023-02-15T01:43:57.824Z,93.70
2023-02-15T01:46:38.480Z,94.00
2023-02-15T01:49:15.784Z,94.20
2023-02-15T01:51:45.821Z,94.40
2023-02-15T01:54:22.095Z,94.20
2023-02-15T01:56:49.562Z,94.30
2023-02-15T01:59:21.620Z,94.60
2023-02-15T02:01:53.228Z,94.60
2023-02-15T02:04:38.762Z,94.40
2023-02-15T02:07:08.139Z,94.40
2023-02-15T02:09:36.658Z,94.70
2023-02-15T02:12:04.140Z,94.10
2023-02-15T02:14:31.675Z,94.10
2023-02-15T02:17:13.226Z,94.00
2023-02-15T02:20:02.369Z,94.00
2023-02-15T02:23:00.357Z,93.90
2023-02-15T02:25:51.977Z,93.90
2023-02-15T02:28:49.455Z,94.00
2023-02-15T02:31:47.682Z,94.10
2023-02-15T02:34:20.053Z,94.20
2023-02-15T02:37:38.466Z,94.20
2023-02-15T02:40:09.001Z,93.50
2023-02-15T02:42:41.231Z,93.80
2023-02-15T02:45:11.411Z,93.70
2023-02-15T02:47:48.596Z,93.60
2023-02-15T02:50:19.099Z,94.00
2023-02-15T02:52:48.767Z,94.20
2023-02-15T02:55:22.497Z,94.20
2023-02-15T02:57:54.572Z,94.40
2023-02-15T03:00:24.422Z,94.60
2023-02-15T03:02:56.698Z,94.40
2023-02-15T03:05:27.407Z,94.50
2023-02-15T03:07:57.856Z,94.20
2023-02-15T03:10:26.091Z,94.20
2023-02-15T03:12:55.166Z,94.30
2023-02-15T03:15:26.186Z,94.10
2023-02-15T03:18:03.661Z,94.00
2023-02-15T03:20:35.251Z,93.90
2023-02-15T03:23:11.894Z,93.90
2023-02-15T03:25:42.915Z,93.70
2023-02-15T03:28:16.491Z,93.70
2023-02-15T03:30:47.623Z,93.70
2023-02-15T03:33:15.966Z,93.60
2023-02-15T03:35:52.474Z,93.70
2023-02-15T03:38:26.598Z,93.60
2023-02-15T03:41:12.555Z,93.60
2023-02-15T03:43:51.695Z,93.60
2023-02-15T03:46:28.961Z,93.60
2023-02-15T03:49:07.959Z,93.60
2023-02-15T03:51:39.115Z,93.50
2023-02-15T03:54:14.470Z,93.40
2023-02-15T03:57:03.208Z,93.50
2023-02-15T03:59:49.158Z,93.40
2023-02-15T04:02:24.488Z,93.70
2023-02-15T04:04:51.641Z,93.60
2023-02-15T04:07:18.855Z,93.60
2023-02-15T04:10:24.214Z,93.60
2023-02-15T04:12:51.367Z,93.50
2023-02-15T04:15:37.170Z,93.60
2023-02-15T04:18:05.012Z,93.60
2023-02-15T04:20:51.088Z,93.60
2023-02-15T04:23:37.060Z,93.60
2023-02-15T04:26:07.332Z,93.60
2023-02-15T04:28:37.036Z,93.70
2023-02-15T04:31:04.225Z,93.70
2023-02-15T04:33:31.399Z,93.70
2023-02-15T04:35:58.610Z,93.70
2023-02-15T04:38:25.787Z,93.60
2023-02-15T04:40:53.675Z,93.20
2023-02-15T04:43:21.176Z,93.60
2023-02-15T04:45:50.475Z,93.60
2023-02-15T04:48:18.643Z,93.70
2023-02-15T04:50:46.017Z,93.30
2023-02-15T04:53:13.535Z,93.70
2023-02-15T04:55:40.760Z,93.70
2023-02-15T04:58:07.968Z,93.80
2023-02-15T05:00:35.112Z,93.90
2023-02-15T05:03:02.322Z,93.90
2023-02-15T05:05:29.465Z,93.90
2023-02-15T05:07:56.586Z,93.90
2023-02-15T05:10:23.795Z,93.70
2023-02-15T05:12:50.967Z,93.90
2023-02-15T05:15:18.248Z,93.90
2023-02-15T05:17:45.376Z,93.90
2023-02-15T05:20:12.644Z,93.90
2023-02-15T05:22:41.688Z,94.00
2023-02-15T05:25:28.535Z,94.00
2023-02-15T05:28:14.603Z,94.10
2023-02-15T05:30:42.121Z,94.10
2023-02-15T05:33:09.615Z,94.30
2023-02-15T05:35:36.798Z,94.30
2023-02-15T05:38:04.023Z,94.30
2023-02-15T05:40:31.173Z,94.00
2023-02-15T05:42:58.685Z,94.30
2023-02-15T05:45:26.166Z,94.30
2023-02-15T05:47:53.370Z,94.70
2023-02-15T05:50:20.642Z,93.90
2023-02-15T05:52:48.151Z,94.30
2023-02-15T05:55:15.703Z,94.20
2023-02-15T05:57:42.960Z,94.10
2023-02-15T06:00:10.865Z,94.10
2023-02-15T06:02:41.363Z,94.20
2023-02-15T06:05:08.758Z,94.20
2023-02-15T06:07:36.037Z,94.20
2023-02-15T06:10:04.081Z,94.10
2023-02-15T06:12:31.756Z,94.00
2023-02-15T06:14:58.972Z,94.00
2023-02-15T06:17:26.153Z,94.00
2023-02-15T06:19:53.301Z,94.00
2023-02-15T06:22:21.265Z,93.90
2023-02-15T06:24:48.503Z,93.90
2023-02-15T06:27:15.748Z,94.00
2023-02-15T06:29:42.902Z,94.00
2023-02-15T06:32:10.170Z,94.00
2023-02-15T06:34:37.428Z,94.00
2023-02-15T06:37:04.625Z,94.10
2023-02-15T06:39:32.503Z,94.10
2023-02-15T06:41:59.700Z,94.60
2023-02-15T06:44:27.031Z,94.20
2023-02-15T06:46:54.411Z,94.20
2023-02-15T06:49:21.591Z,94.20
2023-02-15T06:51:48.811Z,94.10
2023-02-15T06:54:16.036Z,94.20
2023-02-15T06:56:44.513Z,94.20
2023-02-15T06:59:11.822Z,94.20
2023-02-15T07:01:39.169Z,93.70
2023-02-15T07:04:06.532Z,94.00
2023-02-15T07:06:34.572Z,94.00
2023-02-15T07:09:02.052Z,94.10
2023-02-15T07:11:52.791Z,94.00
2023-02-15T07:14:20.017Z,94.00
2023-02-15T07:16:47.266Z,94.00
2023-02-15T07:19:14.534Z,93.60
2023-02-15T07:21:41.699Z,93.90
2023-02-15T07:24:08.830Z,93.90
2023-02-15T07:26:36.012Z,93.90
2023-02-15T07:29:03.580Z,93.80
2023-02-15T07:31:30.768Z,93.40
2023-02-15T07:33:57.975Z,93.70
2023-02-15T07:36:25.196Z,93.50
2023-02-15T07:38:52.426Z,93.40
2023-02-15T07:41:19.644Z,93.20
2023-02-15T07:43:46.892Z,93.30
2023-02-15T07:46:16.511Z,93.20
2023-02-15T07:48:44.440Z,93.10
2023-02-15T07:51:12.955Z,93.00
2023-02-15T07:53:40.250Z,93.00
2023-02-15T07:56:12.453Z,92.90
2023-02-15T07:58:51.666Z,92.80
2023-02-15T08:01:36.140Z,93.20
2023-02-15T08:04:06.543Z,92.80
2023-02-15T08:06:36.115Z,92.60
2023-02-15T08:09:10.372Z,92.50
2023-02-15T08:11:40.181Z,92.20
2023-02-15T08:14:11.349Z,92.10
2023-02-15T08:16:50.536Z,92.00
2023-02-15T08:19:25.126Z,91.90
2023-02-15T08:22:13.763Z,91.50
2023-02-15T08:24:42.068Z,92.20
2023-02-15T08:27:11.935Z,89.00
2023-02-15T08:29:40.346Z,81.10
2023-02-15T08:32:11.233Z,81.40
2023-02-15T08:34:42.752Z,79.00
2023-02-15T08:37:10.451Z,74.50
2023-02-15T08:39:37.800Z,72.50
2023-02-15T08:42:05.369Z,71.40
2023-02-15T08:44:32.633Z,72.60
2023-02-15T08:47:04.720Z,73.50
2023-02-15T08:49:32.397Z,70.60
2023-02-15T08:52:00.558Z,66.40
2023-02-15T08:54:27.825Z,63.40
2023-02-15T08:56:55.218Z,60.70
2023-02-15T08:59:24.076Z,58.50
2023-02-15T09:01:52.838Z,56.10
2023-02-15T09:04:21.490Z,56.50
2023-02-15T09:06:49.850Z,56.80
2023-02-15T09:09:18.385Z,57.20
2023-02-15T09:11:48.153Z,56.90
2023-02-15T09:14:25.445Z,50.40
2023-02-15T09:16:53.910Z,48.40
2023-02-15T09:19:23.383Z,46.70
2023-02-15T09:21:51.208Z,45.60
2023-02-15T09:24:18.654Z,45.70
2023-02-15T09:26:48.482Z,44.80
2023-02-15T09:29:17.541Z,45.20
2023-02-15T09:31:47.850Z,45.20
2023-02-15T09:34:18.032Z,44.50
2023-02-15T09:36:45.761Z,43.60
2023-02-15T09:39:15.941Z,42.20
2023-02-15T09:41:55.016Z,42.80
2023-02-15T09:44:40.812Z,43.00
2023-02-15T09:47:08.644Z,41.90
2023-02-15T09:49:47.510Z,41.40
2023-02-15T09:52:32.473Z,40.80
2023-02-15T09:55:14.661Z,37.20
2023-02-15T09:58:03.559Z,35.50
2023-02-15T10:00:57.136Z,34.50
2023-02-15T10:03:39.106Z,34.60
2023-02-15T10:06:48.378Z,34.90
2023-02-15T10:09:25.992Z,33.10
2023-02-15T10:12:17.507Z,30.80
2023-02-15T10:15:12.524Z,29.70
2023-02-15T10:18:01.196Z,28.70
2023-02-15T10:20:53.250Z,29.20
2023-02-15T10:23:23.273Z,28.40
2023-02-15T10:26:15.021Z,28.30
2023-02-15T10:28:52.409Z,27.30
2023-02-15T10:31:22.662Z,26.30
2023-02-15T10:34:02.871Z,25.50
2023-02-15T10:36:42.093Z,25.00
2023-02-15T10:39:39.252Z,25.10
2023-02-15T10:42:30.561Z,25.30
2023-02-15T10:45:11.390Z,25.70
2023-02-15T10:47:57.188Z,26.50
2023-02-15T10:50:36.863Z,26.80
2023-02-15T10:53:15.966Z,26.80
2023-02-15T10:56:12.571Z,27.00
2023-02-15T10:58:57.338Z,27.00
2023-02-15T11:01:55.510Z,25.70
2023-02-15T11:04:52.419Z,25.30
2023-02-15T11:07:23.645Z,24.90
2023-02-15T11:09:57.628Z,25.80
2023-02-15T11:12:28.115Z,27.10
2023-02-15T11:15:04.688Z,28.40
2023-02-15T11:17:51.483Z,30.40
2023-02-15T11:20:49.963Z,32.40
2023-02-15T11:23:19.308Z,34.80
2023-02-15T11:25:52.584Z,35.90
2023-02-15T11:28:29.876Z,36.70
2023-02-15T11:30:59.011Z,38.70
2023-02-15T11:33:31.890Z,36.00
2023-02-15T11:36:05.027Z,32.50
2023-02-15T11:38:35.821Z,29.40
2023-02-15T11:41:12.840Z,28.70
2023-02-15T11:43:49.677Z,29.90
2023-02-15T11:46:16.943Z,29.70
2023-02-15T11:48:44.361Z,30.10
2023-02-15T11:51:23.759Z,30.80
2023-02-15T11:53:52.222Z,31.30
2023-02-15T11:56:22.883Z,33.20
2023-02-15T11:58:59.514Z,36.00
2023-02-15T12:01:33.888Z,36.80
2023-02-15T12:04:24.814Z,37.50
2023-02-15T12:07:29.574Z,38.50
2023-02-15T12:10:21.005Z,37.40
2023-02-15T12:13:11.797Z,37.10
2023-02-15T12:15:47.379Z,37.20
2023-02-15T12:18:40.097Z,37.20
2023-02-15T12:21:36.854Z,35.60
2023-02-15T12:24:19.319Z,35.50
2023-02-15T12:26:58.413Z,36.30
2023-02-15T12:29:31.351Z,37.50
2023-02-15T12:31:59.709Z,36.90
2023-02-15T12:34:32.971Z,35.60
2023-02-15T12:37:09.907Z,33.60
2023-02-15T12:39:37.205Z,33.30
2023-02-15T12:42:15.028Z,31.80
2023-02-15T12:44:55.182Z,30.10
2023-02-15T12:47:28.918Z,29.90
2023-02-15T12:50:18.284Z,30.10
2023-02-15T12:52:49.189Z,30.00
2023-02-15T12:55:31.057Z,30.50
2023-02-15T12:58:15.507Z,30.70
2023-02-15T13:00:42.738Z,31.30
2023-02-15T13:03:22.567Z,31.70
2023-02-15T13:05:54.169Z,32.80
2023-02-15T13:08:28.155Z,33.30
2023-02-15T13:11:04.341Z,35.30
2023-02-15T13:13:35.455Z,37.20
2023-02-15T13:16:11.796Z,38.70
2023-02-15T13:18:43.556Z,40.20
2023-02-15T13:21:13.513Z,41.50
2023-02-15T13:23:46.920Z,41.30
2023-02-15T13:26:19.745Z,40.20
2023-02-15T13:28:50.590Z,39.60
2023-02-15T13:31:24.687Z,38.70
2023-02-15T13:34:18.052Z,39.80
2023-02-15T13:37:13.235Z,41.30
2023-02-15T13:40:01.577Z,41.80
2023-02-15T13:42:41.471Z,42.50
2023-02-15T13:45:27.001Z,44.30
2023-02-15T13:48:01.925Z,46.00
2023-02-15T13:50:50.671Z,46.80
2023-02-15T13:53:39.780Z,46.90
2023-02-15T13:56:39.832Z,47.90
2023-02-15T13:59:41.343Z,48.70
2023-02-15T14:02:29.423Z,48.90
2023-02-15T14:05:37.210Z,47.90
2023-02-15T14:08:34.050Z,47.50
2023-02-15T14:11:33.322Z,47.00
2023-02-15T14:14:41.562Z,46.70
2023-02-15T14:17:16.197Z,47.40
2023-02-15T14:19:55.227Z,47.10
2023-02-15T14:22:47.969Z,46.50
2023-02-15T14:25:22.975Z,46.70
2023-02-15T14:28:05.158Z,45.70
2023-02-15T14:30:38.831Z,45.40
2023-02-15T14:33:08.229Z,46.60
2023-02-15T14:35:38.064Z,45.50
2023-02-15T14:38:24.681Z,42.90
2023-02-15T14:41:05.612Z,42.60
2023-02-15T14:43:48.330Z,43.70
2023-02-15T14:46:31.035Z,44.40
2023-02-15T14:49:23.522Z,42.50
2023-02-15T14:51:51.102Z,40.60
2023-02-15T14:54:18.291Z,40.30
2023-02-15T14:56:47.327Z,41.40
2023-02-15T14:59:21.666Z,42.90
2023-02-15T15:02:16.209Z,43.90
2023-02-15T15:05:09.403Z,45.70
2023-02-15T15:07:46.559Z,47.90
2023-02-15T15:10:20.754Z,49.40
2023-02-15T15:12:49.945Z,51.60
2023-02-15T15:15:30.505Z,53.20
2023-02-15T15:18:06.363Z,54.30
2023-02-15T15:20:42.787Z,54.30
2023-02-15T15:23:15.981Z,55.20
2023-02-15T15:25:52.790Z,55.80
2023-02-15T15:28:35.103Z,56.50
2023-02-15T15:31:20.906Z,57.20
2023-02-15T15:34:11.443Z,57.80
2023-02-15T15:37:06.349Z,58.90
2023-02-15T15:40:23.514Z,59.70
2023-02-15T15:42:59.940Z,60.60
2023-02-15T15:45:36.305Z,61.10
2023-02-15T15:48:13.790Z,61.70
2023-02-15T15:50:42.453Z,62.50
2023-02-15T15:53:22.078Z,63.00
2023-02-15T15:55:55.085Z,63.70
2023-02-15T15:58:23.402Z,63.90
2023-02-15T16:00:57.986Z,64.50
2023-02-15T16:03:28.694Z,64.80
2023-02-15T16:05:57.135Z,65.20
2023-02-15T16:08:39.990Z,65.30
2023-02-15T16:11:26.299Z,65.60
2023-02-15T16:13:54.306Z,66.00
2023-02-15T16:16:30.379Z,66.50
2023-02-15T16:19:00.379Z,67.10
2023-02-15T16:21:34.488Z,67.40
2023-02-15T16:24:18.515Z,67.90
2023-02-15T16:26:57.891Z,68.50
2023-02-15T16:29:32.248Z,68.90
2023-02-15T16:32:26.397Z,69.20
2023-02-15T16:35:02.965Z,69.60
2023-02-15T16:37:35.330Z,69.90
2023-02-15T16:40:02.860Z,70.40
2023-02-15T16:42:30.137Z,70.60
2023-02-15T16:45:25.488Z,70.90
2023-02-15T16:47:58.073Z,71.20
2023-02-15T16:50:31.589Z,71.40
2023-02-15T16:52:59.231Z,71.50
2023-02-15T16:55:36.012Z,71.80
2023-02-15T16:58:05.961Z,72.00
2023-02-15T17:00:37.783Z,72.30
2023-02-15T17:03:23.986Z,72.60
2023-02-15T17:05:57.549Z,72.80
2023-02-15T17:08:37.822Z,73.10
2023-02-15T17:11:05.465Z,73.30
2023-02-15T17:13:33.016Z,73.60
2023-02-15T17:16:00.497Z,73.80
2023-02-15T17:18:30.928Z,74.00
2023-02-15T17:21:01.412Z,74.10
2023-02-15T17:23:36.102Z,74.20
2023-02-15T17:26:23.545Z,74.20
2023-02-15T17:28:54.902Z,74.30
2023-02-15T17:31:24.946Z,74.40
2023-02-15T17:33:55.282Z,74.50
2023-02-15T17:36:24.452Z,74.60
2023-02-15T17:39:00.617Z,75.10
2023-02-15T17:41:33.667Z,74.90
2023-02-15T17:44:02.419Z,75.00
2023-02-15T17:46:35.415Z,75.20
2023-02-15T17:49:05.200Z,75.20
2023-02-15T17:51:35.764Z,75.20
2023-02-15T17:54:22.124Z,75.20
2023-02-15T17:56:49.267Z,75.30
2023-02-15T17:59:16.538Z,74.50
2023-02-15T18:02:05.664Z,75.30
2023-02-15T18:04:53.799Z,75.30
2023-02-15T18:07:39.777Z,75.30
2023-02-15T18:10:34.106Z,75.10
2023-02-15T18:13:01.352Z,75.80
2023-02-15T18:15:28.890Z,75.00
2023-02-15T18:17:56.503Z,75.10
2023-02-15T18:20:32.744Z,75.00
2023-02-15T18:23:01.925Z,74.90
2023-02-15T18:25:29.272Z,75.00
2023-02-15T18:27:56.845Z,75.10
2023-02-15T18:30:26.692Z,75.20
2023-02-15T18:32:57.198Z,75.30
2023-02-15T18:35:30.028Z,75.50
2023-02-15T18:37:59.741Z,75.50
2023-02-15T18:40:28.699Z,75.40
2023-02-15T18:42:57.136Z,75.20
2023-02-15T18:45:32.945Z,75.20
2023-02-15T18:48:00.400Z,75.10
2023-02-15T18:50:30.988Z,75.00
2023-02-15T18:52:58.296Z,75.00
2023-02-15T18:55:32.444Z,75.00
2023-02-15T18:58:01.026Z,75.00
2023-02-15T19:00:33.693Z,75.00
2023-02-15T19:03:04.864Z,75.10
2023-02-15T19:05:32.921Z,75.50
2023-02-15T19:08:01.764Z,75.10
2023-02-15T19:10:31.357Z,75.20
2023-02-15T19:12:58.673Z,75.10
2023-02-15T19:15:30.425Z,75.00
2023-02-15T19:17:57.801Z,75.10
2023-02-15T19:20:31.171Z,75.10
2023-02-15T19:23:01.444Z,75.10
2023-02-15T19:25:32.119Z,75.00
2023-02-15T19:27:59.494Z,75.00
2023-02-15T19:30:31.671Z,75.10
2023-02-15T19:32:59.956Z,75.20
2023-02-15T19:35:32.081Z,75.20
2023-02-15T19:38:02.640Z,75.50
2023-02-15T19:40:32.780Z,75.50
2023-02-15T19:43:00.141Z,75.60
2023-02-15T19:45:32.083Z,75.50
2023-02-15T19:48:01.375Z,75.50
2023-02-15T19:50:31.315Z,75.80
2023-02-15T19:52:58.946Z,75.70
2023-02-15T19:55:35.022Z,75.80
2023-02-15T19:58:10.948Z,75.80
2023-02-15T20:00:38.143Z,76.00
2023-02-15T20:03:05.917Z,76.20
2023-02-15T20:05:38.209Z,76.20
2023-02-15T20:08:09.900Z,76.40
2023-02-15T20:10:37.136Z,75.80
2023-02-15T20:13:04.273Z,76.50
2023-02-15T20:15:35.742Z,76.60
2023-02-15T20:18:04.014Z,76.50
2023-02-15T20:20:40.254Z,76.50
2023-02-15T20:23:17.749Z,76.60
2023-02-15T20:25:45.016Z,76.70
2023-02-15T20:28:20.686Z,76.80
2023-02-15T20:30:49.084Z,76.80
2023-02-15T20:33:17.489Z,76.90
2023-02-15T20:35:45.871Z,76.80
2023-02-15T20:38:24.691Z,76.80
2023-02-15T20:41:11.045Z,77.00
2023-02-15T20:43:39.659Z,77.00
2023-02-15T20:46:07.648Z,77.10
2023-02-15T20:48:35.412Z,77.40
2023-02-15T20:51:03.645Z,77.40
2023-02-15T20:53:31.045Z,77.50
2023-02-15T20:55:58.250Z,77.60
2023-02-15T20:58:28.461Z,77.50
2023-02-15T21:00:57.890Z,77.50
2023-02-15T21:03:30.239Z,77.50
2023-02-15T21:05:58.957Z,77.60
2023-02-15T21:08:27.092Z,77.60
2023-02-15T21:10:54.605Z,76.90
2023-02-15T21:13:29.543Z,77.70
2023-02-15T21:15:57.713Z,77.60
2023-02-15T21:18:30.779Z,77.70
2023-02-15T21:21:00.773Z,77.80
2023-02-15T21:23:38.424Z,77.80
2023-02-15T21:26:06.048Z,77.80
2023-02-15T21:28:33.315Z,77.90
2023-02-15T21:31:00.612Z,78.10
2023-02-15T21:33:27.879Z,78.30
2023-02-15T21:35:57.634Z,78.40
2023-02-15T21:38:29.104Z,78.60
2023-02-15T21:41:16.437Z,78.80
2023-02-15T21:44:02.267Z,79.00
2023-02-15T21:46:48.196Z,79.00
2023-02-15T21:49:16.026Z,79.20
2023-02-15T21:52:01.655Z,79.40
2023-02-15T21:54:28.875Z,79.50
2023-02-15T21:56:57.013Z,79.50
2023-02-15T21:59:27.026Z,79.00
2023-02-15T22:01:54.374Z,79.70
2023-02-15T22:04:29.958Z,79.80
2023-02-15T22:06:57.265Z,80.00
2023-02-15T22:09:27.150Z,80.20
2023-02-15T22:11:55.046Z,80.30
2023-02-15T22:14:31.083Z,80.20
2023-02-15T22:16:58.286Z,80.30
2023-02-15T22:19:25.493Z,79.70
2023-02-15T22:21:52.680Z,80.50
2023-02-15T22:24:19.918Z,80.50
2023-02-15T22:26:47.181Z,80.60
2023-02-15T22:29:17.392Z,80.00
2023-02-15T22:31:45.228Z,80.80
2023-02-15T22:34:27.736Z,80.80
2023-02-15T22:36:55.918Z,80.80
2023-02-15T22:39:24.654Z,80.90
2023-02-15T22:41:53.076Z,80.90
2023-02-15T22:44:29.209Z,80.90
2023-02-15T22:46:56.818Z,80.90
2023-02-15T22:49:24.027Z,81.00
2023-02-15T22:51:51.701Z,81.00
2023-02-15T22:54:19.753Z,80.70
2023-02-15T22:56:52.511Z,80.90
2023-02-15T22:59:21.599Z,80.90
2023-02-15T23:01:49.178Z,80.80
2023-02-15T23:04:23.990Z,80.90
2023-02-15T23:06:53.223Z,81.00
2023-02-15T23:09:20.887Z,81.00
2023-02-15T23:11:50.316Z,81.10
2023-02-15T23:14:32.356Z,81.10
2023-02-15T23:16:59.509Z,81.20
2023-02-15T23:19:27.528Z,81.40
2023-02-15T23:21:54.734Z,81.40
2023-02-15T23:24:26.827Z,81.50
2023-02-15T23:26:54.141Z,81.60
2023-02-15T23:29:23.551Z,81.70
2023-02-15T23:31:53.259Z,81.90
2023-02-15T23:34:26.948Z,82.00
2023-02-15T23:36:54.547Z,82.20
2023-02-15T23:39:45.725Z,82.30
2023-02-15T23:42:27.917Z,82.40
2023-02-15T23:44:55.904Z,82.60
2023-02-15T23:47:47.831Z,82.70
2023-02-15T23:50:21.238Z,82.90
2023-02-15T23:52:50.550Z,83.20
2023-02-15T23:55:18.409Z,83.50
2023-02-15T23:57:46.239Z,83.70
